createdAt,value
2022-08-25T00:00:36.112Z,23.04
2022-08-25T00:01:36.110Z,23.04
2022-08-25T00:02:36.208Z,23.05
2022-08-25T00:03:37.879Z,23.05
2022-08-25T00:04:36.087Z,23.05
2022-08-25T00:05:36.093Z,23.05
2022-08-25T00:06:36.049Z,23.04
2022-08-25T00:07:36.055Z,23.01
2022-08-25T00:08:36.050Z,23.00
2022-08-25T00:09:36.059Z,23.00
2022-08-25T00:10:36.933Z,22.97
2022-08-25T00:11:36.032Z,22.97
2022-08-25T00:12:36.005Z,22.92
2022-08-25T00:13:36.007Z,22.94
2022-08-25T00:14:35.987Z,22.91
2022-08-25T00:15:36.053Z,22.90
2022-08-25T00:16:35.947Z,22.85
2022-08-25T00:17:35.936Z,22.83
2022-08-25T00:18:35.924Z,22.82
2022-08-25T00:19:37.051Z,22.80
2022-08-25T00:20:35.913Z,22.80
2022-08-25T00:21:35.917Z,22.80
2022-08-25T00:22:35.886Z,22.79
2022-08-25T00:23:35.877Z,22.79
2022-08-25T00:24:35.914Z,22.77
2022-08-25T00:25:35.858Z,22.73
2022-08-25T00:26:35.846Z,22.68
2022-08-25T00:27:35.836Z,22.68
2022-08-25T00:28:35.829Z,22.65
2022-08-25T00:29:35.845Z,22.62
2022-08-25T00:30:35.801Z,22.61
2022-08-25T00:31:38.223Z,22.61
2022-08-25T00:32:35.816Z,22.55
2022-08-25T00:33:35.773Z,22.57
2022-08-25T00:34:35.770Z,22.55
2022-08-25T00:35:35.772Z,22.54
2022-08-25T00:36:35.741Z,22.51
2022-08-25T00:37:35.732Z,22.51
2022-08-25T00:38:35.722Z,22.51
2022-08-25T00:39:35.710Z,22.51
2022-08-25T00:40:35.721Z,22.52
2022-08-25T00:41:35.690Z,22.54
2022-08-25T00:42:35.710Z,22.54
2022-08-25T00:43:35.677Z,22.57
2022-08-25T00:44:35.678Z,22.57
2022-08-25T00:45:35.680Z,22.55
2022-08-25T00:46:35.717Z,22.55
2022-08-25T00:47:35.630Z,22.54
2022-08-25T00:48:35.614Z,22.57
2022-08-25T00:49:35.609Z,22.55
2022-08-25T00:50:35.609Z,22.55
2022-08-25T00:51:35.589Z,22.54
2022-08-25T00:52:35.578Z,22.55
2022-08-25T00:53:35.566Z,22.55
2022-08-25T00:54:35.557Z,22.55
2022-08-25T00:55:35.584Z,22.55
2022-08-25T00:56:35.535Z,22.54
2022-08-25T00:57:35.532Z,22.54
2022-08-25T00:58:35.511Z,22.54
2022-08-25T00:59:35.534Z,22.54
2022-08-25T01:00:35.490Z,22.51
2022-08-25T01:01:35.528Z,22.51
2022-08-25T01:02:35.511Z,22.49
2022-08-25T01:03:35.715Z,22.49
2022-08-25T01:04:35.487Z,22.46
2022-08-25T01:05:35.445Z,22.42
2022-08-25T01:06:35.437Z,22.42
2022-08-25T01:07:35.440Z,22.40
2022-08-25T01:08:35.412Z,22.39
2022-08-25T01:09:35.438Z,22.37
2022-08-25T01:10:35.389Z,22.37
2022-08-25T01:11:35.382Z,22.35
2022-08-25T01:12:35.370Z,22.33
2022-08-25T01:13:35.362Z,22.31
2022-08-25T01:14:35.365Z,22.31
2022-08-25T01:15:35.384Z,22.27
2022-08-25T01:16:35.330Z,22.25
2022-08-25T01:17:35.341Z,22.24
2022-08-25T01:18:35.322Z,22.22
2022-08-25T01:19:35.346Z,22.20
2022-08-25T01:20:35.296Z,22.17
2022-08-25T01:21:35.297Z,22.17
2022-08-25T01:22:35.271Z,22.18
2022-08-25T01:23:35.258Z,22.17
2022-08-25T01:24:35.249Z,22.17
2022-08-25T01:25:35.253Z,22.15
2022-08-25T01:26:35.225Z,22.15
2022-08-25T01:27:35.217Z,22.14
2022-08-25T01:28:35.227Z,22.10
2022-08-25T01:29:35.198Z,22.10
2022-08-25T01:30:35.306Z,22.09
2022-08-25T01:31:35.218Z,22.06
2022-08-25T01:32:35.164Z,22.06
2022-08-25T01:33:35.154Z,22.05
2022-08-25T01:34:35.143Z,22.05
2022-08-25T01:35:35.147Z,22.03
2022-08-25T01:36:35.123Z,22.00
2022-08-25T01:37:35.119Z,22.00
2022-08-25T01:38:35.111Z,22.00
2022-08-25T01:39:35.114Z,22.00
2022-08-25T01:40:35.088Z,21.98
2022-08-25T01:41:35.073Z,22.00
2022-08-25T01:42:35.966Z,21.99
2022-08-25T01:43:35.063Z,21.96
2022-08-25T01:44:35.101Z,21.96
2022-08-25T01:45:35.033Z,21.96
2022-08-25T01:46:35.131Z,21.91
2022-08-25T01:47:35.013Z,21.90
2022-08-25T01:48:35.000Z,21.88
2022-08-25T01:49:35.007Z,21.88
2022-08-25T01:50:34.986Z,21.83
2022-08-25T01:51:34.975Z,21.80
2022-08-25T01:52:34.990Z,21.77
2022-08-25T01:53:34.964Z,21.72
2022-08-25T01:54:34.947Z,21.74
2022-08-25T01:55:34.964Z,21.69
2022-08-25T01:56:34.920Z,21.68
2022-08-25T01:57:34.935Z,21.67
2022-08-25T01:58:34.900Z,21.64
2022-08-25T01:59:34.893Z,21.59
2022-08-25T02:00:34.900Z,21.59
2022-08-25T02:01:34.931Z,21.56
2022-08-25T02:02:34.902Z,21.54
2022-08-25T02:03:34.873Z,21.52
2022-08-25T02:04:34.839Z,21.50
2022-08-25T02:05:34.853Z,21.47
2022-08-25T02:06:34.820Z,21.46
2022-08-25T02:07:34.824Z,21.44
2022-08-25T02:08:34.802Z,21.40
2022-08-25T02:09:34.811Z,21.35
2022-08-25T02:10:34.792Z,21.32
2022-08-25T02:11:34.780Z,21.28
2022-08-25T02:12:34.762Z,21.28
2022-08-25T02:13:34.750Z,21.25
2022-08-25T02:14:34.739Z,21.24
2022-08-25T02:15:34.743Z,21.22
2022-08-25T02:16:34.828Z,21.19
2022-08-25T02:17:34.727Z,21.16
2022-08-25T02:18:34.698Z,21.17
2022-08-25T02:19:34.688Z,21.13
2022-08-25T02:20:34.731Z,21.13
2022-08-25T02:21:34.691Z,21.10
2022-08-25T02:22:34.659Z,21.12
2022-08-25T02:23:34.654Z,21.12
2022-08-25T02:24:34.638Z,21.14
2022-08-25T02:25:34.645Z,21.13
2022-08-25T02:26:34.620Z,21.14
2022-08-25T02:27:34.608Z,21.13
2022-08-25T02:28:34.607Z,21.14
2022-08-25T02:29:34.624Z,21.13
2022-08-25T02:30:34.638Z,21.12
2022-08-25T02:31:34.587Z,21.12
2022-08-25T02:32:34.571Z,21.12
2022-08-25T02:33:34.554Z,21.10
2022-08-25T02:34:34.550Z,21.10
2022-08-25T02:35:34.542Z,21.12
2022-08-25T02:36:34.521Z,21.10
2022-08-25T02:37:34.508Z,21.10
2022-08-25T02:38:34.498Z,21.09
2022-08-25T02:39:34.994Z,21.07
2022-08-25T02:40:34.502Z,21.07
2022-08-25T02:41:34.467Z,21.06
2022-08-25T02:42:34.456Z,21.07
2022-08-25T02:43:34.472Z,21.06
2022-08-25T02:44:34.446Z,21.06
2022-08-25T02:45:34.494Z,21.06
2022-08-25T02:46:34.421Z,21.06
2022-08-25T02:47:34.407Z,21.07
2022-08-25T02:48:34.397Z,21.07
2022-08-25T02:49:34.387Z,21.07
2022-08-25T02:50:34.397Z,21.06
2022-08-25T02:51:34.377Z,21.07
2022-08-25T02:52:34.397Z,21.03
2022-08-25T02:53:34.348Z,21.04
2022-08-25T02:54:34.335Z,21.03
2022-08-25T02:55:34.654Z,21.01
2022-08-25T02:56:34.331Z,21.03
2022-08-25T02:57:34.305Z,21.03
2022-08-25T02:58:34.295Z,21.04
2022-08-25T02:59:34.285Z,21.03
2022-08-25T03:00:34.287Z,21.04
2022-08-25T03:01:34.320Z,21.03
2022-08-25T03:02:34.255Z,21.04
2022-08-25T03:03:38.834Z,21.03
2022-08-25T03:04:35.311Z,21.01
2022-08-25T03:05:34.249Z,21.03
2022-08-25T03:06:34.216Z,20.99
2022-08-25T03:07:35.354Z,20.97
2022-08-25T03:08:34.191Z,20.94
2022-08-25T03:09:34.312Z,20.91
2022-08-25T03:10:34.186Z,20.91
2022-08-25T03:11:34.162Z,20.87
2022-08-25T03:12:34.150Z,20.87
2022-08-25T03:13:34.163Z,20.85
2022-08-25T03:14:34.129Z,20.82
2022-08-25T03:15:34.163Z,20.80
2022-08-25T03:16:34.168Z,20.79
2022-08-25T03:17:34.112Z,20.79
2022-08-25T03:18:34.088Z,20.77
2022-08-25T03:19:34.089Z,20.77
2022-08-25T03:20:34.083Z,20.74
2022-08-25T03:21:34.063Z,20.73
2022-08-25T03:22:34.053Z,20.73
2022-08-25T03:23:34.044Z,20.73
2022-08-25T03:24:34.028Z,20.73
2022-08-25T03:25:34.031Z,20.73
2022-08-25T03:26:34.012Z,20.74
2022-08-25T03:27:34.014Z,20.74
2022-08-25T03:28:33.989Z,20.73
2022-08-25T03:29:33.977Z,20.74
2022-08-25T03:30:34.012Z,20.73
2022-08-25T03:31:34.052Z,20.73
2022-08-25T03:32:33.944Z,20.73
2022-08-25T03:33:33.934Z,20.72
2022-08-25T03:34:33.927Z,20.69
2022-08-25T03:35:33.919Z,20.69
2022-08-25T03:36:33.920Z,20.69
2022-08-25T03:37:33.893Z,20.67
2022-08-25T03:38:33.887Z,20.67
2022-08-25T03:39:33.879Z,20.64
2022-08-25T03:40:34.512Z,20.66
2022-08-25T03:41:33.878Z,20.64
2022-08-25T03:42:33.868Z,20.61
2022-08-25T03:43:33.837Z,20.64
2022-08-25T03:44:33.827Z,20.62
2022-08-25T03:45:34.622Z,20.62
2022-08-25T03:46:33.818Z,20.61
2022-08-25T03:47:33.794Z,20.57
2022-08-25T03:48:33.781Z,20.57
2022-08-25T03:49:33.783Z,20.55
2022-08-25T03:50:33.761Z,20.55
2022-08-25T03:51:33.765Z,20.55
2022-08-25T03:52:33.745Z,20.55
2022-08-25T03:53:33.734Z,20.54
2022-08-25T03:54:33.735Z,20.54
2022-08-25T03:55:33.715Z,20.55
2022-08-25T03:56:33.712Z,20.55
2022-08-25T03:57:33.688Z,20.57
2022-08-25T03:58:33.681Z,20.57
2022-08-25T03:59:33.667Z,20.58
2022-08-25T04:00:33.667Z,20.58
2022-08-25T04:01:33.746Z,20.58
2022-08-25T04:02:33.748Z,20.58
2022-08-25T04:03:33.630Z,20.57
2022-08-25T04:04:33.635Z,20.55
2022-08-25T04:05:33.606Z,20.55
2022-08-25T04:06:33.610Z,20.54
2022-08-25T04:07:33.586Z,20.54
2022-08-25T04:08:33.577Z,20.54
2022-08-25T04:09:36.807Z,20.52
2022-08-25T04:10:33.556Z,20.52
2022-08-25T04:11:33.555Z,20.51
2022-08-25T04:12:33.543Z,20.51
2022-08-25T04:13:33.520Z,20.51
2022-08-25T04:14:33.526Z,20.51
2022-08-25T04:15:33.504Z,20.50
2022-08-25T04:16:33.561Z,20.47
2022-08-25T04:17:33.497Z,20.42
2022-08-25T04:18:33.473Z,20.42
2022-08-25T04:19:33.465Z,20.41
2022-08-25T04:20:33.454Z,20.47
2022-08-25T04:21:33.452Z,20.42
2022-08-25T04:22:33.669Z,20.43
2022-08-25T04:23:33.418Z,20.39
2022-08-25T04:24:33.414Z,20.41
2022-08-25T04:25:33.404Z,20.41
2022-08-25T04:26:34.031Z,20.41
2022-08-25T04:27:33.375Z,20.43
2022-08-25T04:28:33.371Z,20.47
2022-08-25T04:29:33.355Z,20.43
2022-08-25T04:30:33.354Z,20.41
2022-08-25T04:31:33.515Z,20.42
2022-08-25T04:32:33.336Z,20.41
2022-08-25T04:33:33.321Z,20.39
2022-08-25T04:34:33.305Z,20.39
2022-08-25T04:35:33.295Z,20.38
2022-08-25T04:36:33.301Z,20.36
2022-08-25T04:37:33.344Z,20.35
2022-08-25T04:38:33.264Z,20.33
2022-08-25T04:39:33.261Z,20.31
2022-08-25T04:40:33.358Z,20.29
2022-08-25T04:41:33.264Z,20.29
2022-08-25T04:42:33.265Z,20.26
2022-08-25T04:43:33.214Z,20.28
2022-08-25T04:44:33.207Z,20.28
2022-08-25T04:45:33.234Z,20.28
2022-08-25T04:46:33.195Z,20.29
2022-08-25T04:47:33.168Z,20.31
2022-08-25T04:48:33.166Z,20.31
2022-08-25T04:49:33.165Z,20.31
2022-08-25T04:50:33.148Z,20.29
2022-08-25T04:51:33.169Z,20.28
2022-08-25T04:52:33.120Z,20.28
2022-08-25T04:53:33.122Z,20.24
2022-08-25T04:54:37.217Z,20.24
2022-08-25T04:55:33.085Z,20.24
2022-08-25T04:56:33.078Z,20.24
2022-08-25T04:57:33.078Z,20.26
2022-08-25T04:58:33.057Z,20.29
2022-08-25T04:59:33.045Z,20.29
2022-08-25T05:00:33.036Z,20.29
2022-08-25T05:01:33.025Z,20.28
2022-08-25T05:02:33.042Z,20.26
2022-08-25T05:03:33.001Z,20.24
2022-08-25T05:04:33.083Z,20.26
2022-08-25T05:05:32.983Z,20.24
2022-08-25T05:06:32.975Z,20.26
2022-08-25T05:07:33.081Z,20.26
2022-08-25T05:08:32.954Z,20.29
2022-08-25T05:09:33.183Z,20.31
2022-08-25T05:10:32.931Z,20.31
2022-08-25T05:11:32.920Z,20.31
2022-08-25T05:12:33.084Z,20.32
2022-08-25T05:13:32.898Z,20.32
2022-08-25T05:14:32.888Z,20.33
2022-08-25T05:15:32.885Z,20.35
2022-08-25T05:16:32.942Z,20.35
2022-08-25T05:17:32.882Z,20.36
2022-08-25T05:18:32.846Z,20.39
2022-08-25T05:19:32.860Z,20.39
2022-08-25T05:20:32.829Z,20.39
2022-08-25T05:21:32.817Z,20.38
2022-08-25T05:22:32.824Z,20.39
2022-08-25T05:23:32.799Z,20.42
2022-08-25T05:24:33.553Z,20.42
2022-08-25T05:25:33.586Z,20.42
2022-08-25T05:26:32.776Z,20.43
2022-08-25T05:27:32.786Z,20.43
2022-08-25T05:28:32.742Z,20.47
2022-08-25T05:29:32.738Z,20.48
2022-08-25T05:30:32.740Z,20.48
2022-08-25T05:31:32.763Z,20.50
2022-08-25T05:32:32.741Z,20.51
2022-08-25T05:33:32.899Z,20.54
2022-08-25T05:34:32.678Z,20.52
2022-08-25T05:35:32.668Z,20.55
2022-08-25T05:36:32.659Z,20.57
2022-08-25T05:37:32.703Z,20.57
2022-08-25T05:38:32.640Z,20.58
2022-08-25T05:39:32.648Z,20.59
2022-08-25T05:40:32.645Z,20.58
2022-08-25T05:41:32.604Z,20.55
2022-08-25T05:42:32.609Z,20.52
2022-08-25T05:43:32.583Z,20.52
2022-08-25T05:44:32.586Z,20.52
2022-08-25T05:45:32.612Z,20.51
2022-08-25T05:46:32.555Z,20.51
2022-08-25T05:47:32.556Z,20.50
2022-08-25T05:48:32.534Z,20.51
2022-08-25T05:49:32.529Z,20.51
2022-08-25T05:50:32.518Z,20.50
2022-08-25T05:51:32.502Z,20.51
2022-08-25T05:52:32.506Z,20.52
2022-08-25T05:53:33.997Z,20.54
2022-08-25T05:54:32.484Z,20.54
2022-08-25T05:55:32.472Z,20.55
2022-08-25T05:56:32.455Z,20.55
2022-08-25T05:57:32.452Z,20.57
2022-08-25T05:58:32.438Z,20.58
2022-08-25T05:59:33.068Z,20.58
2022-08-25T06:00:32.413Z,20.57
2022-08-25T06:01:32.433Z,20.57
2022-08-25T06:02:32.408Z,20.57
2022-08-25T06:03:32.445Z,20.58
2022-08-25T06:04:32.371Z,20.59
2022-08-25T06:05:32.359Z,20.62
2022-08-25T06:06:32.361Z,20.64
2022-08-25T06:07:32.364Z,20.66
2022-08-25T06:08:32.342Z,20.67
2022-08-25T06:09:32.313Z,20.69
2022-08-25T06:10:32.305Z,20.72
2022-08-25T06:11:32.293Z,20.74
2022-08-25T06:12:32.298Z,20.76
2022-08-25T06:13:32.267Z,20.79
2022-08-25T06:14:32.267Z,20.80
2022-08-25T06:15:32.246Z,20.84
2022-08-25T06:16:32.328Z,20.88
2022-08-25T06:17:32.242Z,20.89
2022-08-25T06:18:33.080Z,20.91
2022-08-25T06:19:32.218Z,20.92
2022-08-25T06:20:32.195Z,20.95
2022-08-25T06:21:32.185Z,20.97
2022-08-25T06:22:32.200Z,20.98
2022-08-25T06:23:32.162Z,20.98
2022-08-25T06:24:32.156Z,20.99
2022-08-25T06:25:32.143Z,20.99
2022-08-25T06:26:32.136Z,21.04
2022-08-25T06:27:32.171Z,21.04
2022-08-25T06:28:32.126Z,21.07
2022-08-25T06:29:32.102Z,21.10
2022-08-25T06:30:32.100Z,21.12
2022-08-25T06:31:32.137Z,21.13
2022-08-25T06:32:32.107Z,21.16
2022-08-25T06:33:32.061Z,21.17
2022-08-25T06:34:32.060Z,21.19
2022-08-25T06:35:32.043Z,21.19
2022-08-25T06:36:32.030Z,21.22
2022-08-25T06:37:32.024Z,21.24
2022-08-25T06:38:32.033Z,21.25
2022-08-25T06:39:32.001Z,21.28
2022-08-25T06:40:32.036Z,21.29
2022-08-25T06:41:36.598Z,21.34
2022-08-25T06:42:32.970Z,21.37
2022-08-25T06:43:31.978Z,21.38
2022-08-25T06:44:31.947Z,21.42
2022-08-25T06:45:31.938Z,21.43
2022-08-25T06:46:36.182Z,21.47
2022-08-25T06:47:32.928Z,21.50
2022-08-25T06:48:31.925Z,21.52
2022-08-25T06:49:35.625Z,21.54
2022-08-25T06:50:31.889Z,21.58
2022-08-25T06:51:32.593Z,21.59
2022-08-25T06:52:31.869Z,21.62
2022-08-25T06:53:32.136Z,21.64
2022-08-25T06:54:31.849Z,21.67
2022-08-25T06:55:31.843Z,21.69
2022-08-25T06:56:31.860Z,21.71
2022-08-25T06:57:31.857Z,21.72
2022-08-25T06:58:31.817Z,21.72
2022-08-25T06:59:32.433Z,21.75
2022-08-25T07:00:31.862Z,21.77
2022-08-25T07:01:31.949Z,21.80
2022-08-25T07:02:31.815Z,21.83
2022-08-25T07:03:31.783Z,21.83
2022-08-25T07:04:31.750Z,21.88
2022-08-25T07:05:43.461Z,21.90
2022-08-25T07:06:32.724Z,21.91
2022-08-25T07:07:43.261Z,21.94
2022-08-25T07:08:32.718Z,21.98
2022-08-25T07:09:32.928Z,22.00
2022-08-25T07:10:31.735Z,22.02
2022-08-25T07:11:31.670Z,22.05
2022-08-25T07:12:31.687Z,22.07
2022-08-25T07:13:31.651Z,22.10
2022-08-25T07:14:31.645Z,22.14
2022-08-25T07:15:31.654Z,22.15
2022-08-25T07:16:31.726Z,22.17
2022-08-25T07:17:31.610Z,22.21
2022-08-25T07:18:31.613Z,22.24
2022-08-25T07:19:31.603Z,22.28
2022-08-25T07:20:31.598Z,22.33
2022-08-25T07:21:33.721Z,22.36
2022-08-25T07:22:31.562Z,22.39
2022-08-25T07:23:31.565Z,22.43
2022-08-25T07:24:31.547Z,22.45
2022-08-25T07:25:31.530Z,22.49
2022-08-25T07:26:37.681Z,22.52
2022-08-25T07:27:32.526Z,22.54
2022-08-25T07:28:31.514Z,22.58
2022-08-25T07:29:32.533Z,22.58
2022-08-25T07:30:31.479Z,22.62
2022-08-25T07:31:31.538Z,22.65
2022-08-25T07:32:31.462Z,22.65
2022-08-25T07:33:31.497Z,22.70
2022-08-25T07:34:31.439Z,22.72
2022-08-25T07:35:37.487Z,22.76
2022-08-25T07:36:32.451Z,22.79
2022-08-25T07:37:48.123Z,22.77
2022-08-25T07:38:32.421Z,22.80
2022-08-25T07:39:32.387Z,22.82
2022-08-25T07:40:31.460Z,22.83
2022-08-25T07:41:31.366Z,22.85
2022-08-25T07:42:31.366Z,22.86
2022-08-25T07:43:31.367Z,22.91
2022-08-25T07:44:31.341Z,22.92
2022-08-25T07:45:31.342Z,22.97
2022-08-25T07:46:31.353Z,22.98
2022-08-25T07:47:31.304Z,22.98
2022-08-25T07:48:31.315Z,23.02
2022-08-25T07:50:32.278Z,23.09
2022-08-25T07:51:31.275Z,23.12
2022-08-25T07:52:31.274Z,23.13
2022-08-25T07:53:31.273Z,23.16
2022-08-25T07:54:31.320Z,23.16
2022-08-25T07:55:31.221Z,23.16
2022-08-25T07:56:31.225Z,23.19
2022-08-25T07:57:31.220Z,23.22
2022-08-25T07:58:31.206Z,23.25
2022-08-25T07:59:31.184Z,23.28
2022-08-25T08:00:32.184Z,23.31
2022-08-25T08:01:31.207Z,23.33
2022-08-25T08:02:31.189Z,23.36
2022-08-25T08:03:45.214Z,23.39
2022-08-25T08:04:32.129Z,23.40
2022-08-25T08:05:31.134Z,23.42
2022-08-25T08:06:31.126Z,23.50
2022-08-25T08:07:43.047Z,23.54
2022-08-25T08:08:32.567Z,23.55
2022-08-25T08:09:31.081Z,23.60
2022-08-25T08:10:53.974Z,23.63
2022-08-25T08:11:32.075Z,23.66
2022-08-25T08:12:31.097Z,23.69
2022-08-25T08:13:31.044Z,23.68
2022-08-25T08:14:31.033Z,23.72
2022-08-25T08:15:31.035Z,23.70
2022-08-25T08:16:31.061Z,23.72
2022-08-25T08:17:31.034Z,23.75
2022-08-25T08:18:31.016Z,23.78
2022-08-25T08:19:30.984Z,23.80
2022-08-25T08:20:30.986Z,23.83
2022-08-25T08:21:31.963Z,23.85
2022-08-25T08:22:30.967Z,23.88
2022-08-25T08:23:30.936Z,23.91
2022-08-25T08:24:44.325Z,23.93
2022-08-25T08:25:31.915Z,23.97
2022-08-25T08:26:55.244Z,23.98
2022-08-25T08:27:31.920Z,24.05
2022-08-25T08:28:30.902Z,24.08
2022-08-25T08:29:30.895Z,24.10
2022-08-25T08:30:30.883Z,24.16
2022-08-25T08:31:30.888Z,24.18
2022-08-25T08:32:46.240Z,24.21
2022-08-25T08:33:31.846Z,24.25
2022-08-25T08:34:31.841Z,24.28
2022-08-25T08:35:30.811Z,24.31
2022-08-25T08:36:30.801Z,24.32
2022-08-25T08:37:31.160Z,24.35
2022-08-25T08:38:30.799Z,24.39
2022-08-25T08:39:30.768Z,24.40
2022-08-25T08:40:30.814Z,24.45
2022-08-25T08:41:33.866Z,24.49
2022-08-25T08:42:31.751Z,24.55
2022-08-25T08:43:33.340Z,24.60
2022-08-25T08:44:30.717Z,24.62
2022-08-25T08:45:30.708Z,24.65
2022-08-25T08:46:30.722Z,24.67
2022-08-25T08:47:30.753Z,24.69
2022-08-25T08:48:30.740Z,24.73
2022-08-25T08:49:30.691Z,24.77
2022-08-25T08:50:32.980Z,24.80
2022-08-25T08:51:32.648Z,24.83
2022-08-25T08:52:30.672Z,24.87
2022-08-25T08:53:33.981Z,24.93
2022-08-25T08:54:30.637Z,24.96
2022-08-25T08:55:30.619Z,25.00
2022-08-25T08:56:30.969Z,25.05
2022-08-25T08:57:30.593Z,25.09
2022-08-25T08:58:30.597Z,25.13
2022-08-25T08:59:30.863Z,25.13
2022-08-25T09:00:30.556Z,25.14
2022-08-25T09:01:30.586Z,25.18
2022-08-25T09:02:39.244Z,25.20
2022-08-25T09:03:31.663Z,25.21
2022-08-25T09:04:30.514Z,25.24
2022-08-25T09:05:30.513Z,25.25
2022-08-25T09:06:30.531Z,25.32
2022-08-25T09:07:30.507Z,25.38
2022-08-25T09:08:30.510Z,25.39
2022-08-25T09:09:30.463Z,25.45
2022-08-25T09:10:31.464Z,25.47
2022-08-25T09:11:30.606Z,25.52
2022-08-25T09:12:30.432Z,25.55
2022-08-25T09:13:30.435Z,25.58
2022-08-25T09:14:30.897Z,25.60
2022-08-25T09:15:30.416Z,25.62
2022-08-25T09:16:34.052Z,25.67
2022-08-25T09:17:30.395Z,25.72
2022-08-25T09:18:30.422Z,25.75
2022-08-25T09:19:30.371Z,25.79
2022-08-25T09:20:30.384Z,25.83
2022-08-25T09:21:30.343Z,25.83
2022-08-25T09:22:35.763Z,25.88
2022-08-25T09:23:31.346Z,25.90
2022-08-25T09:24:30.308Z,25.91
2022-08-25T09:25:54.525Z,25.94
2022-08-25T09:26:31.289Z,25.97
2022-08-25T09:27:30.326Z,25.98
2022-08-25T09:28:30.279Z,26.01
2022-08-25T09:29:30.279Z,26.01
2022-08-25T09:30:30.280Z,26.01
2022-08-25T09:31:30.312Z,26.02
2022-08-25T09:32:31.460Z,26.06
2022-08-25T09:33:30.230Z,26.09
2022-08-25T09:34:30.209Z,26.10
2022-08-25T09:35:30.199Z,26.13
2022-08-25T09:36:33.238Z,26.17
2022-08-25T09:37:31.179Z,26.18
2022-08-25T09:38:30.225Z,26.26
2022-08-25T09:39:30.175Z,26.29
2022-08-25T09:40:30.304Z,26.29
2022-08-25T09:41:30.660Z,26.29
2022-08-25T09:42:30.132Z,26.28
2022-08-25T09:43:30.139Z,26.26
2022-08-25T09:44:30.105Z,26.28
2022-08-25T09:45:30.095Z,26.29
2022-08-25T09:46:30.184Z,26.29
2022-08-25T09:47:30.074Z,26.33
2022-08-25T09:48:30.081Z,26.39
2022-08-25T09:49:30.054Z,26.43
2022-08-25T09:50:30.046Z,26.47
2022-08-25T09:51:30.212Z,26.50
2022-08-25T09:52:31.020Z,26.54
2022-08-25T09:53:33.879Z,26.58
2022-08-25T09:54:34.041Z,26.62
2022-08-25T09:55:32.634Z,26.65
2022-08-25T09:56:29.982Z,26.69
2022-08-25T09:57:29.974Z,26.72
2022-08-25T09:58:30.004Z,26.75
2022-08-25T09:59:34.359Z,26.82
2022-08-25T10:00:30.942Z,26.85
2022-08-25T10:01:32.089Z,26.88
2022-08-25T10:02:30.923Z,26.91
2022-08-25T10:03:29.946Z,26.94
2022-08-25T10:04:30.900Z,26.97
2022-08-25T10:05:29.990Z,27.02
2022-08-25T10:06:29.904Z,27.03
2022-08-25T10:07:30.668Z,27.03
2022-08-25T10:08:29.898Z,27.09
2022-08-25T10:09:29.852Z,27.12
2022-08-25T10:10:32.212Z,27.14
2022-08-25T10:11:29.839Z,27.19
2022-08-25T10:12:29.822Z,27.21
2022-08-25T10:13:29.834Z,27.24
2022-08-25T10:14:29.806Z,27.27
2022-08-25T10:15:30.700Z,27.29
2022-08-25T10:16:34.282Z,27.32
2022-08-25T10:17:30.799Z,27.32
2022-08-25T10:18:29.794Z,27.34
2022-08-25T10:19:30.251Z,27.32
2022-08-25T10:20:33.167Z,27.36
2022-08-25T10:21:30.731Z,27.39
2022-08-25T10:22:29.722Z,27.39
2022-08-25T10:23:30.687Z,27.40
2022-08-25T10:24:29.702Z,27.40
2022-08-25T10:25:29.697Z,27.43
2022-08-25T10:26:33.029Z,27.46
2022-08-25T10:27:30.675Z,27.46
2022-08-25T10:28:29.753Z,27.49
2022-08-25T10:29:29.752Z,27.47
2022-08-25T10:30:29.663Z,27.47
2022-08-25T10:31:29.653Z,27.50
2022-08-25T10:32:29.627Z,27.50
2022-08-25T10:33:29.617Z,27.49
2022-08-25T10:34:29.621Z,27.44
2022-08-25T10:35:29.593Z,27.47
2022-08-25T10:36:29.589Z,27.46
2022-08-25T10:37:32.940Z,27.49
2022-08-25T10:38:33.486Z,27.51
2022-08-25T10:39:34.045Z,27.55
2022-08-25T10:40:30.645Z,27.57
2022-08-25T10:41:29.532Z,27.60
2022-08-25T10:42:29.547Z,27.65
2022-08-25T10:43:29.519Z,27.69
2022-08-25T10:44:29.521Z,27.70
2022-08-25T10:45:29.490Z,27.74
2022-08-25T10:46:29.551Z,27.79
2022-08-25T10:47:29.469Z,27.84
2022-08-25T10:48:29.460Z,27.87
2022-08-25T10:49:29.463Z,27.93
2022-08-25T10:50:29.438Z,27.97
2022-08-25T10:51:29.431Z,28.02
2022-08-25T10:52:29.427Z,28.03
2022-08-25T10:53:30.190Z,28.00
2022-08-25T10:54:29.400Z,27.99
2022-08-25T10:55:29.406Z,27.96
2022-08-25T10:56:29.420Z,27.93
2022-08-25T10:57:29.370Z,27.94
2022-08-25T10:58:30.767Z,27.99
2022-08-25T10:59:29.836Z,28.00
2022-08-25T11:00:31.550Z,28.03
2022-08-25T11:01:32.975Z,28.06
2022-08-25T11:02:30.329Z,28.03
2022-08-25T11:03:29.308Z,28.02
2022-08-25T11:04:30.313Z,28.00
2022-08-25T11:05:29.415Z,28.03
2022-08-25T11:06:29.286Z,28.07
2022-08-25T11:07:29.282Z,28.14
2022-08-25T11:08:29.259Z,28.19
2022-08-25T11:09:29.265Z,28.22
2022-08-25T11:10:29.235Z,28.25
2022-08-25T11:11:29.225Z,28.29
2022-08-25T11:12:29.215Z,28.29
2022-08-25T11:13:29.213Z,28.31
2022-08-25T11:14:33.925Z,28.36
2022-08-25T11:15:30.184Z,28.41
2022-08-25T11:16:29.217Z,28.43
2022-08-25T11:17:29.180Z,28.44
2022-08-25T11:18:29.700Z,28.43
2022-08-25T11:19:29.161Z,28.44
2022-08-25T11:20:29.133Z,28.46
2022-08-25T11:21:29.125Z,28.49
2022-08-25T11:22:29.118Z,28.51
2022-08-25T11:23:29.109Z,28.52
2022-08-25T11:24:29.106Z,28.52
2022-08-25T11:25:29.088Z,28.54
2022-08-25T11:26:31.938Z,28.59
2022-08-25T11:27:29.064Z,28.67
2022-08-25T11:28:29.443Z,28.73
2022-08-25T11:29:29.102Z,28.77
2022-08-25T11:30:29.740Z,28.83
2022-08-25T11:31:29.024Z,28.86
2022-08-25T11:32:29.016Z,28.93
2022-08-25T11:33:29.006Z,29.04
2022-08-25T11:34:29.005Z,28.90
2022-08-25T11:35:28.986Z,28.80
2022-08-25T11:36:29.630Z,28.71
2022-08-25T11:37:28.965Z,28.68
2022-08-25T11:38:28.954Z,28.71
2022-08-25T11:39:32.865Z,28.59
2022-08-25T11:40:29.996Z,28.62
2022-08-25T11:41:28.935Z,28.73
2022-08-25T11:42:28.926Z,28.74
2022-08-25T11:43:28.908Z,28.83
2022-08-25T11:44:30.033Z,28.92
2022-08-25T11:45:28.888Z,28.98
2022-08-25T11:46:28.926Z,29.05
2022-08-25T11:47:28.879Z,29.11
2022-08-25T11:48:28.857Z,29.16
2022-08-25T11:49:28.869Z,29.18
2022-08-25T11:50:30.108Z,29.27
2022-08-25T11:51:30.958Z,29.34
2022-08-25T11:52:30.693Z,29.41
2022-08-25T11:53:28.890Z,29.49
2022-08-25T11:54:28.815Z,29.52
2022-08-25T11:55:28.809Z,29.58
2022-08-25T11:56:28.806Z,29.61
2022-08-25T11:57:28.768Z,29.58
2022-08-25T11:58:30.739Z,29.61
2022-08-25T11:59:28.750Z,29.60
2022-08-25T12:00:28.753Z,29.57
2022-08-25T12:01:28.727Z,29.55
2022-08-25T12:02:28.716Z,29.57
2022-08-25T12:03:28.718Z,29.58
2022-08-25T12:04:28.863Z,29.61
2022-08-25T12:05:28.816Z,29.70
2022-08-25T12:06:28.683Z,29.78
2022-08-25T12:07:28.709Z,29.83
2022-08-25T12:08:28.659Z,29.89
2022-08-25T12:09:28.647Z,29.76
2022-08-25T12:10:28.650Z,29.63
2022-08-25T12:11:28.627Z,29.57
2022-08-25T12:12:28.617Z,29.57
2022-08-25T12:13:28.622Z,29.61
2022-08-25T12:14:28.685Z,29.70
2022-08-25T12:15:28.626Z,29.78
2022-08-25T12:16:28.622Z,29.89
2022-08-25T12:17:28.572Z,29.95
2022-08-25T12:18:28.558Z,30.02
2022-08-25T12:19:28.760Z,30.05
2022-08-25T12:20:28.555Z,30.13
2022-08-25T12:21:28.526Z,30.17
2022-08-25T12:22:28.519Z,30.23
2022-08-25T12:23:28.506Z,30.29
2022-08-25T12:24:28.499Z,30.37
2022-08-25T12:25:28.533Z,30.42
2022-08-25T12:26:28.478Z,30.43
2022-08-25T12:27:28.481Z,30.43
2022-08-25T12:28:29.483Z,30.47
2022-08-25T12:29:29.446Z,30.60
2022-08-25T12:30:28.535Z,30.67
2022-08-25T12:31:29.239Z,30.75
2022-08-25T12:32:29.234Z,30.83
2022-08-25T12:33:28.405Z,30.89
2022-08-25T12:34:28.397Z,30.95
2022-08-25T12:35:29.563Z,30.95
2022-08-25T12:36:28.377Z,30.97
2022-08-25T12:37:28.384Z,31.02
2022-08-25T12:38:28.358Z,31.04
2022-08-25T12:39:28.350Z,31.10
2022-08-25T12:40:28.451Z,31.17
2022-08-25T12:41:31.063Z,31.25
2022-08-25T12:42:29.319Z,31.34
2022-08-25T12:43:28.819Z,31.35
2022-08-25T12:44:28.297Z,31.39
2022-08-25T12:45:28.302Z,31.44
2022-08-25T12:46:28.319Z,31.43
2022-08-25T12:47:28.272Z,31.46
2022-08-25T12:48:28.261Z,31.50
2022-08-25T12:49:28.252Z,31.50
2022-08-25T12:50:28.255Z,31.54
2022-08-25T12:51:28.243Z,31.61
2022-08-25T12:52:28.324Z,31.63
2022-08-25T12:53:28.215Z,31.63